Terminal Aerodrome Forecast
Issued by NWS

Home | Current Version | Previous Version | Graphics & Text | Print | Product List | Glossary On
Versions: 1 2 3 4 5 6 7 8 9 10 11 12 13 14 15 16 17
000
FTUS43 KGRB 201721
TAFATW
TAF
KATW 201721Z 2018/2118 23007KT P6SM SCT050 BKN120
     FM202200 23007KT P6SM SCT060 BKN120
     FM210100 23006KT P6SM BKN120
     FM210700 27006KT P6SM SCT120 BKN200
     FM211500 27011KT P6SM SCT070 BKN200=

USA.gov is the U.S. government's official web portal to all federal, state and local government web resources and services.